Time;durP1;ratioP1;P1;durP2;ratioP2;P2;SDS_P1;SDS_P2;PMS_P1;PMS_P2;Temp;Humidity;BMP_temperature;BMP_pressure;BME280_temperature;BME280_humidity;BME280_pressure;Samples;Min_cycle;Max_cycle;Signal;HPM_P1;HPM_P2
2023/01/09 00:00:51;;;;;;;2.78;1.75;;;8.10;99.90;;;;;;4980157;28;91793;-87
2023/01/09 00:03:18;;;;;;;3.03;2.15;;;8.20;99.90;;;;;;4996059;28;96102;-86
2023/01/09 00:05:45;;;;;;;4.20;2.13;;;8.20;99.90;;;;;;4995470;28;96123;-86
2023/01/09 00:08:12;;;;;;;2.85;2.17;;;8.20;99.90;;;;;;4978787;28;95159;-86
2023/01/09 00:10:39;;;;;;;2.33;2.13;;;8.30;99.90;;;;;;4996175;28;92499;-87
2023/01/09 00:13:08;;;;;;;4.28;2.30;;;8.30;99.90;;;;;;4979785;28;93307;-87
2023/01/09 00:15:35;;;;;;;4.90;2.17;;;8.40;99.90;;;;;;4997267;28;92980;-87
2023/01/09 00:18:02;;;;;;;3.85;2.20;;;8.40;99.90;;;;;;4995858;28;92455;-88
2023/01/09 00:20:29;;;;;;;2.88;2.45;;;8.40;99.90;;;;;;4997167;28;92476;-87
2023/01/09 00:22:56;;;;;;;4.18;2.45;;;8.40;99.90;;;;;;4979427;28;93224;-87
2023/01/09 00:25:23;;;;;;;4.63;2.13;;;8.40;99.90;;;;;;4999939;28;91868;-87
2023/01/09 00:27:50;;;;;;;3.13;2.20;;;8.40;99.90;;;;;;4982864;28;92839;-85
2023/01/09 00:30:17;;;;;;;2.72;2.25;;;8.40;99.90;;;;;;4998935;28;92479;-86
2023/01/09 00:32:45;;;;;;;3.53;2.15;;;8.50;99.90;;;;;;5015539;28;95581;-86
2023/01/09 00:35:15;;;;;;;4.35;2.20;;;8.50;99.90;;;;;;4999333;28;95597;-87
2023/01/09 00:37:43;;;;;;;4.38;2.63;;;8.60;99.90;;;;;;5017404;28;92599;-87
2023/01/09 00:40:11;;;;;;;4.22;2.28;;;8.60;99.90;;;;;;4999415;28;92546;-87
2023/01/09 00:42:38;;;;;;;4.70;2.38;;;8.70;99.90;;;;;;4998859;28;95053;-87
2023/01/09 00:45:19;;;;;;;5.47;2.38;;;8.70;99.90;;;;;;4982143;28;95558;-87
2023/01/09 00:47:49;;;;;;;3.15;2.45;;;8.80;99.90;;;;;;4982054;28;92420;-86
2023/01/09 00:50:20;;;;;;;5.22;2.85;;;8.80;99.90;;;;;;5017261;28;91811;-87
2023/01/09 00:52:53;;;;;;;3.75;2.40;;;8.80;99.90;;;;;;4998663;28;94921;-86
2023/01/09 00:55:20;;;;;;;4.15;2.20;;;8.80;99.90;;;;;;4983094;28;96048;-87
2023/01/09 00:57:48;;;;;;;5.18;2.65;;;8.80;99.90;;;;;;4981188;28;94826;-86
2023/01/09 01:00:15;;;;;;;6.72;2.90;;;8.80;99.90;;;;;;4999288;28;92468;-86
2023/01/09 01:02:42;;;;;;;4.45;3.15;;;8.80;99.90;;;;;;4998448;28;94736;-87
2023/01/09 01:07:54;;;;;;;5.22;3.17;;;8.90;99.90;;;;;;4998351;28;92740;-86
2023/01/09 01:10:25;;;;;;;5.47;3.50;;;8.90;99.90;;;;;;4981885;28;92483;-87
2023/01/09 01:12:52;;;;;;;4.22;2.50;;;8.90;99.90;;;;;;5016052;28;95110;-87
2023/01/09 01:15:20;;;;;;;4.28;2.75;;;8.90;99.90;;;;;;4998719;28;95618;-87
2023/01/09 01:17:47;;;;;;;3.95;2.42;;;8.90;99.90;;;;;;4998549;28;93068;-86
2023/01/09 01:20:17;;;;;;;3.05;1.65;;;8.80;99.90;;;;;;4998662;28;92557;-87
2023/01/09 01:22:45;;;;;;;1.73;1.58;;;8.80;99.90;;;;;;4996905;28;99053;-86
2023/01/09 01:25:15;;;;;;;5.97;1.80;;;8.80;99.90;;;;;;4980819;28;96976;-86
2023/01/09 01:27:43;;;;;;;2.38;1.58;;;8.80;99.90;;;;;;4982405;28;92512;-86
2023/01/09 01:30:12;;;;;;;3.55;1.75;;;8.80;99.90;;;;;;4981606;28;92474;-87
2023/01/09 01:32:39;;;;;;;2.58;1.85;;;8.80;99.90;;;;;;4998033;28;95957;-86
2023/01/09 01:35:08;;;;;;;1.83;1.38;;;8.80;99.90;;;;;;4981295;28;95853;-87
2023/01/09 01:37:36;;;;;;;2.05;1.23;;;8.80;99.90;;;;;;4998360;28;92432;-86
2023/01/09 01:40:05;;;;;;;2.95;1.40;;;8.80;99.90;;;;;;4998318;28;91816;-87
2023/01/09 01:42:32;;;;;;;1.58;1.30;;;8.80;99.90;;;;;;4980757;28;95895;-87
2023/01/09 01:45:11;;;;;;;1.67;0.80;;;8.80;99.90;;;;;;4981495;28;94251;-87
2023/01/09 01:47:47;;;;;;;1.23;0.68;;;8.70;99.90;;;;;;4980524;28;94825;-87
2023/01/09 01:50:43;;;;;;;1.15;0.60;;;8.70;99.90;;;;;;4981417;28;92516;-87
2023/01/09 01:53:16;;;;;;;0.98;0.70;;;8.70;99.90;;;;;;4981366;28;95718;-87
2023/01/09 01:55:52;;;;;;;1.80;0.63;;;8.70;99.90;;;;;;5016248;28;93166;-87
2023/01/09 01:58:19;;;;;;;0.80;0.80;;;8.70;99.90;;;;;;4981262;28;92434;-87
2023/01/09 02:00:47;;;;;;;1.00;0.80;;;8.70;99.90;;;;;;4998296;28;93028;-87
2023/01/09 02:03:17;;;;;;;1.67;1.05;;;8.70;99.90;;;;;;5015453;28;96883;-87
2023/01/09 02:05:44;;;;;;;1.40;0.85;;;8.70;99.90;;;;;;4998118;28;92876;-87
2023/01/09 02:08:11;;;;;;;2.30;1.20;;;8.60;99.90;;;;;;4997420;28;92475;-87
2023/01/09 02:10:39;;;;;;;2.05;0.90;;;8.60;99.90;;;;;;4998185;28;92478;-87
2023/01/09 02:13:09;;;;;;;2.22;1.77;;;8.60;99.90;;;;;;5014354;28;95465;-87
2023/01/09 02:15:57;;;;;;;2.38;1.50;;;8.60;99.90;;;;;;5016100;28;95791;-87
2023/01/09 02:19:08;;;;;;;1.77;1.40;;;8.60;99.90;;;;;;4942160;28;92551;-87
2023/01/09 02:21:38;;;;;;;1.98;1.50;;;8.60;99.90;;;;;;5005268;28;92583;-87
2023/01/09 02:24:08;;;;;;;3.03;2.00;;;8.60;99.90;;;;;;4997170;28;93283;-87
2023/01/09 02:27:12;;;;;;;1.75;1.65;;;8.60;99.90;;;;;;5015386;28;93059;-87
2023/01/09 02:30:18;;;;;;;2.70;1.70;;;8.60;99.90;;;;;;4997640;28;92525;-86
2023/01/09 02:33:16;;;;;;;3.28;1.95;;;8.60;99.90;;;;;;4997525;28;91825;-87
2023/01/09 02:35:54;;;;;;;2.78;2.47;;;8.70;99.90;;;;;;4980928;28;96022;-87
2023/01/09 02:38:39;;;;;;;2.95;2.38;;;8.60;99.90;;;;;;4997409;28;95603;-87
2023/01/09 02:41:20;;;;;;;3.30;2.17;;;8.60;99.90;;;;;;4996620;28;94831;-88
2023/01/09 02:43:47;;;;;;;4.05;2.38;;;8.60;99.90;;;;;;5015586;28;92594;-87
2023/01/09 02:46:20;;;;;;;3.35;2.83;;;8.60;99.90;;;;;;4997181;28;94452;-87
2023/01/09 02:48:52;;;;;;;3.80;2.60;;;8.50;99.90;;;;;;4980349;28;95265;-87
2023/01/09 02:51:36;;;;;;;2.83;2.63;;;8.50;99.90;;;;;;4997645;28;92525;-87
2023/01/09 02:54:22;;;;;;;4.40;2.97;;;8.40;99.90;;;;;;4996854;28;92509;-87
2023/01/09 02:57:09;;;;;;;5.55;3.53;;;8.40;99.90;;;;;;4999863;28;96098;-86
2023/01/09 02:59:56;;;;;;;4.40;2.92;;;8.40;99.90;;;;;;4984270;28;94523;-87
2023/01/09 03:02:34;;;;;;;4.00;3.03;;;8.30;99.90;;;;;;5000278;28;92426;-87
2023/01/09 03:05:13;;;;;;;5.65;3.40;;;8.30;99.90;;;;;;5000387;28;92589;-87
2023/01/09 03:07:58;;;;;;;7.28;3.60;;;8.20;99.90;;;;;;5017499;28;95684;-87
2023/01/09 03:10:45;;;;;;;4.68;2.97;;;8.20;99.90;;;;;;5018338;28;95679;-87
2023/01/09 03:13:16;;;;;;;6.75;3.00;;;8.10;99.90;;;;;;4984401;28;92552;-87
2023/01/09 03:15:48;;;;;;;9.15;3.15;;;8.00;99.90;;;;;;5018378;28;92410;-86
2023/01/09 03:18:19;;;;;;;5.50;3.30;;;7.90;99.90;;;;;;5000032;28;94535;-86
2023/01/09 03:20:47;;;;;;;5.35;3.35;;;7.90;99.90;;;;;;4983626;28;95820;-86
2023/01/09 03:23:14;;;;;;;4.05;3.10;;;7.80;99.90;;;;;;4999638;28;92558;-86
2023/01/09 03:25:41;;;;;;;3.88;3.20;;;7.80;99.90;;;;;;5000475;28;91799;-87
2023/01/09 03:28:26;;;;;;;3.80;2.90;;;7.70;99.90;;;;;;4999542;28;96044;-86
2023/01/09 03:30:54;;;;;;;6.15;2.95;;;7.70;99.90;;;;;;5000476;28;93002;-86
2023/01/09 03:33:21;;;;;;;3.53;2.95;;;7.60;99.90;;;;;;5017443;28;95321;-86
2023/01/09 03:35:48;;;;;;;4.38;2.95;;;7.50;99.90;;;;;;5000780;28;92560;-86
2023/01/09 03:38:15;;;;;;;6.05;3.17;;;7.50;99.90;;;;;;4999731;28;93277;-86
2023/01/09 03:40:42;;;;;;;5.30;3.03;;;7.40;99.90;;;;;;4999472;28;99888;-86
2023/01/09 03:43:12;;;;;;;6.13;3.50;;;7.40;99.90;;;;;;4999723;28;92522;-87
2023/01/09 03:45:39;;;;;;;3.92;2.83;;;7.40;99.90;;;;;;4983244;28;92491;-86
2023/01/09 03:48:06;;;;;;;6.68;3.13;;;7.30;99.90;;;;;;4983058;28;96063;-86
2023/01/09 03:50:33;;;;;;;5.95;3.13;;;7.20;99.90;;;;;;4967359;28;94210;-87
2023/01/09 03:53:01;;;;;;;6.18;3.25;;;7.20;99.90;;;;;;4999872;28;92481;-87
2023/01/09 03:55:28;;;;;;;4.15;3.30;;;7.10;99.90;;;;;;5017779;28;92994;-87
2023/01/09 03:57:55;;;;;;;8.82;3.47;;;7.10;99.90;;;;;;4981795;28;98203;-87
2023/01/09 04:00:22;;;;;;;7.05;3.78;;;7.00;99.90;;;;;;4999609;28;95553;-87
2023/01/09 04:02:49;;;;;;;8.90;4.05;;;6.90;99.90;;;;;;4999820;28;92534;-87
2023/01/09 04:05:16;;;;;;;6.53;3.05;;;6.90;99.90;;;;;;4999760;28;93050;-87
2023/01/09 04:07:43;;;;;;;10.30;3.47;;;6.80;99.90;;;;;;4999210;28;93537;-87
2023/01/09 04:10:10;;;;;;;10.63;3.53;;;6.80;99.90;;;;;;5017096;28;92954;-87
2023/01/09 04:12:37;;;;;;;4.72;3.17;;;6.70;99.90;;;;;;4982782;28;92439;-87
2023/01/09 04:15:05;;;;;;;13.00;3.83;;;6.70;99.90;;;;;;4983589;28;91750;-86
2023/01/09 04:17:32;;;;;;;7.68;3.58;;;6.60;99.90;;;;;;4999015;28;95801;-87
2023/01/09 04:19:59;;;;;;;8.70;3.63;;;6.60;99.90;;;;;;4998923;28;94699;-87
2023/01/09 04:22:26;;;;;;;8.93;3.35;;;6.50;99.90;;;;;;4998417;28;95497;-88
2023/01/09 04:24:53;;;;;;;10.27;3.33;;;6.50;99.90;;;;;;4982569;28;92622;-87
2023/01/09 04:27:20;;;;;;;8.80;4.03;;;6.50;99.90;;;;;;5017112;28;93451;-85
2023/01/09 04:29:47;;;;;;;7.82;3.92;;;6.40;99.90;;;;;;4982204;28;95774;-86
2023/01/09 04:32:14;;;;;;;10.45;4.05;;;6.40;99.90;;;;;;4982393;28;93122;-86
2023/01/09 04:34:41;;;;;;;8.23;4.30;;;6.40;99.90;;;;;;5016991;28;92458;-86
2023/01/09 04:37:11;;;;;;;9.15;4.97;;;6.30;99.90;;;;;;4983661;28;94476;-86
2023/01/09 04:39:39;;;;;;;10.95;5.30;;;6.40;99.90;;;;;;4999715;28;93054;-87
2023/01/09 04:42:06;;;;;;;10.68;5.85;;;6.30;99.90;;;;;;4999488;28;92490;-87
2023/01/09 04:44:33;;;;;;;12.82;6.78;;;6.30;99.90;;;;;;4982273;28;92924;-86
2023/01/09 04:47:00;;;;;;;12.35;6.43;;;6.30;99.90;;;;;;5015914;28;95697;-86
2023/01/09 04:49:27;;;;;;;10.50;6.15;;;6.30;99.90;;;;;;4998550;28;96286;-86
2023/01/09 04:51:54;;;;;;;12.48;6.95;;;6.30;99.90;;;;;;4999285;28;93329;-85
2023/01/09 04:54:21;;;;;;;12.65;7.60;;;6.30;99.90;;;;;;5016990;28;92493;-86
2023/01/09 04:56:48;;;;;;;13.45;8.93;;;6.30;99.90;;;;;;4982094;28;96278;-86
2023/01/09 04:59:16;;;;;;;12.02;7.20;;;6.30;99.90;;;;;;4981583;28;95877;-86
2023/01/09 05:01:43;;;;;;;13.27;8.02;;;6.20;99.90;;;;;;5016534;28;92421;-86
2023/01/09 05:04:10;;;;;;;15.57;8.70;;;6.30;99.90;;;;;;5017289;28;91636;-86
2023/01/09 05:06:37;;;;;;;17.65;8.93;;;6.20;99.90;;;;;;4981705;28;96157;-86
2023/01/09 05:09:04;;;;;;;15.40;8.43;;;6.20;99.90;;;;;;4998399;28;93273;-86
2023/01/09 05:11:31;;;;;;;16.88;8.73;;;6.20;99.90;;;;;;5015262;28;94967;-86
2023/01/09 05:13:58;;;;;;;16.83;8.68;;;6.10;99.90;;;;;;4982275;28;92473;-86
2023/01/09 05:16:25;;;;;;;13.55;8.45;;;6.20;99.90;;;;;;5015724;28;93239;-86
2023/01/09 05:18:55;;;;;;;12.82;8.63;;;6.20;99.90;;;;;;4980992;28;95948;-86
2023/01/09 05:21:23;;;;;;;12.75;8.63;;;6.30;99.90;;;;;;4982221;28;92525;-86
2023/01/09 05:23:50;;;;;;;14.88;8.73;;;6.40;99.90;;;;;;4994885;28;92989;-86
2023/01/09 05:26:22;;;;;;;16.52;9.95;;;6.40;99.90;;;;;;4994729;28;96473;-87
2023/01/09 05:28:51;;;;;;;12.45;8.80;;;6.40;99.90;;;;;;4996714;28;91856;-87
2023/01/09 05:31:18;;;;;;;12.30;9.48;;;6.50;99.90;;;;;;4995044;28;92625;-86
2023/01/09 05:33:46;;;;;;;16.10;10.43;;;6.50;99.90;;;;;;4978528;28;92548;-87
2023/01/09 05:36:13;;;;;;;16.83;9.57;;;6.60;99.90;;;;;;4976602;28;95700;-87
2023/01/09 05:38:40;;;;;;;18.85;10.40;;;6.60;99.90;;;;;;4994431;28;98042;-87
2023/01/09 05:41:08;;;;;;;17.00;9.70;;;6.60;99.90;;;;;;4994370;28;92466;-87
2023/01/09 05:43:35;;;;;;;19.95;10.98;;;6.70;99.90;;;;;;4994204;28;92575;-87
2023/01/09 05:46:02;;;;;;;16.92;10.38;;;6.80;99.90;;;;;;4994210;28;93342;-87
2023/01/09 05:48:29;;;;;;;18.58;11.30;;;6.80;99.90;;;;;;4977418;28;93470;-87
2023/01/09 05:50:56;;;;;;;16.45;10.50;;;6.90;99.90;;;;;;4977305;28;92615;-87
2023/01/09 05:53:23;;;;;;;18.38;10.98;;;6.90;99.90;;;;;;4994710;28;91688;-87
2023/01/09 05:55:50;;;;;;;17.67;11.50;;;7.00;99.90;;;;;;4993917;28;95962;-87
2023/01/09 05:58:18;;;;;;;20.13;11.48;;;7.00;99.90;;;;;;4977190;28;95563;-87
2023/01/09 06:00:45;;;;;;;21.17;10.43;;;7.10;99.90;;;;;;4976424;28;95050;-87
2023/01/09 06:03:12;;;;;;;18.65;12.10;;;7.10;99.90;;;;;;4977847;28;92454;-87
2023/01/09 06:05:39;;;;;;;17.92;11.13;;;7.10;99.90;;;;;;4977659;28;93432;-87
2023/01/09 06:08:06;;;;;;;19.02;11.32;;;7.20;99.90;;;;;;4994303;28;92975;-87
2023/01/09 06:10:33;;;;;;;15.95;10.35;;;7.20;99.90;;;;;;4993569;28;92581;-87
2023/01/09 06:13:00;;;;;;;22.30;11.75;;;7.30;99.90;;;;;;4995476;28;92545;-87
2023/01/09 06:15:27;;;;;;;15.32;10.60;;;7.20;99.90;;;;;;4976780;28;96060;-87
2023/01/09 06:17:54;;;;;;;16.73;9.90;;;7.30;99.90;;;;;;4994077;28;93094;-87
2023/01/09 06:20:21;;;;;;;14.32;10.00;;;7.30;99.90;;;;;;4977652;28;92576;-87
2023/01/09 06:22:50;;;;;;;11.50;8.35;;;7.40;99.90;;;;;;4960707;28;92628;-87
2023/01/09 06:25:18;;;;;;;15.82;9.35;;;7.40;99.90;;;;;;4976518;28;95465;-86
2023/01/09 06:27:45;;;;;;;15.18;8.75;;;7.40;99.90;;;;;;4977379;28;98052;-86
2023/01/09 06:30:12;;;;;;;16.77;9.25;;;7.40;99.90;;;;;;4996604;28;93458;-86
2023/01/09 06:32:39;;;;;;;11.05;7.95;;;7.40;99.90;;;;;;4981009;28;92476;-86
2023/01/09 06:35:07;;;;;;;15.18;9.32;;;7.50;99.90;;;;;;4997471;28;95790;-86
2023/01/09 06:37:34;;;;;;;12.32;8.07;;;7.50;99.90;;;;;;4980603;28;95505;-86
2023/01/09 06:40:01;;;;;;;14.32;8.27;;;7.50;99.90;;;;;;4980819;28;92555;-86
2023/01/09 06:42:28;;;;;;;12.77;8.00;;;7.60;99.90;;;;;;4998776;28;91694;-86
2023/01/09 06:44:55;;;;;;;12.52;8.73;;;7.60;99.90;;;;;;4997472;28;93287;-85
2023/01/09 06:47:22;;;;;;;11.35;7.50;;;7.60;99.90;;;;;;4997424;28;93051;-85
2023/01/09 06:49:49;;;;;;;9.65;6.88;;;7.60;99.90;;;;;;4979618;28;94850;-85
2023/01/09 06:52:16;;;;;;;9.85;7.80;;;7.70;99.90;;;;;;4980662;28;92468;-85
2023/01/09 06:54:42;;;;;;;15.85;8.07;;;7.60;99.90;;;;;;4980368;28;95597;-85
2023/01/09 06:57:10;;;;;;;14.55;7.15;;;7.60;99.90;;;;;;4997457;28;93132;-85
2023/01/09 06:59:36;;;;;;;10.60;7.90;;;7.70;99.90;;;;;;4980725;28;92375;-84
2023/01/09 07:02:03;;;;;;;12.13;7.68;;;7.70;99.90;;;;;;4997353;28;92510;-85
2023/01/09 07:04:33;;;;;;;10.77;7.60;;;7.70;99.90;;;;;;4964161;28;95725;-83
2023/01/09 07:07:00;;;;;;;10.45;7.05;;;7.70;99.90;;;;;;4997184;28;93962;-83
2023/01/09 07:09:27;;;;;;;10.32;6.93;;;7.70;99.90;;;;;;4998422;28;92427;-84
2023/01/09 07:11:54;;;;;;;7.68;6.57;;;7.70;99.90;;;;;;4996883;28;92641;-85
2023/01/09 07:14:21;;;;;;;8.68;5.72;;;7.70;99.90;;;;;;4995579;28;103460;-84
2023/01/09 07:16:48;;;;;;;9.43;7.38;;;7.80;99.90;;;;;;4996759;28;95630;-84
2023/01/09 07:19:15;;;;;;;9.73;6.13;;;7.70;99.90;;;;;;4996903;28;92558;-84
2023/01/09 07:21:42;;;;;;;11.60;6.40;;;7.80;99.90;;;;;;4980653;28;92868;-85
2023/01/09 07:24:09;;;;;;;8.55;6.40;;;7.80;99.90;;;;;;4963837;28;96015;-83
2023/01/09 07:26:38;;;;;;;10.30;6.72;;;7.70;99.90;;;;;;4996458;28;92527;-83
2023/01/09 07:29:04;;;;;;;11.05;6.07;;;7.70;99.90;;;;;;4997332;28;92573;-84
2023/01/09 07:31:32;;;;;;;7.75;5.97;;;7.70;99.90;;;;;;4980747;28;91695;-84
2023/01/09 07:33:59;;;;;;;10.18;5.40;;;7.70;99.90;;;;;;4996274;28;95779;-85
2023/01/09 07:36:26;;;;;;;12.25;6.90;;;7.70;99.90;;;;;;4980187;28;92982;-85
2023/01/09 07:38:53;;;;;;;8.27;6.00;;;7.70;99.90;;;;;;4996774;28;94944;-85
2023/01/09 07:41:20;;;;;;;10.50;5.85;;;7.70;99.90;;;;;;4979330;28;92611;-85
2023/01/09 07:43:47;;;;;;;8.07;5.45;;;7.60;99.90;;;;;;4996138;28;94841;-85
2023/01/09 07:46:14;;;;;;;10.82;5.88;;;7.50;99.90;;;;;;4997405;28;97686;-85
2023/01/09 07:48:41;;;;;;;8.35;4.72;;;7.50;99.90;;;;;;4996366;28;92965;-85
2023/01/09 07:51:09;;;;;;;9.00;4.82;;;7.40;99.90;;;;;;4996668;28;92470;-85
2023/01/09 07:53:38;;;;;;;8.25;4.60;;;7.30;99.90;;;;;;4996441;28;93719;-85
2023/01/09 07:56:05;;;;;;;9.43;4.60;;;7.20;99.90;;;;;;4997902;28;93152;-85
2023/01/09 07:58:32;;;;;;;7.93;4.07;;;7.10;99.90;;;;;;4996487;28;92502;-85
2023/01/09 08:00:59;;;;;;;5.57;3.97;;;7.10;99.90;;;;;;4996222;28;92556;-85
2023/01/09 08:03:26;;;;;;;7.70;3.90;;;7.10;99.90;;;;;;4994625;28;96169;-86
2023/01/09 08:05:53;;;;;;;5.47;3.85;;;7.10;99.90;;;;;;4979409;28;95452;-86
2023/01/09 08:08:20;;;;;;;7.97;4.00;;;7.20;99.90;;;;;;4963736;28;92430;-85
2023/01/09 08:10:47;;;;;;;5.15;3.33;;;7.20;99.90;;;;;;4962915;28;92589;-87
2023/01/09 08:13:14;;;;;;;7.88;3.75;;;7.30;99.90;;;;;;4996281;28;93301;-87
2023/01/09 08:15:42;;;;;;;6.82;3.60;;;7.40;99.90;;;;;;4995698;28;95685;-87
2023/01/09 08:18:09;;;;;;;6.60;3.63;;;7.40;99.90;;;;;;4979592;28;92377;-87
2023/01/09 08:20:36;;;;;;;7.95;3.65;;;7.50;99.90;;;;;;4980028;28;91773;-86
2023/01/09 08:23:03;;;;;;;6.03;3.45;;;7.60;99.90;;;;;;4964599;28;95845;-87
2023/01/09 08:25:33;;;;;;;7.00;3.60;;;7.50;99.90;;;;;;5000309;28;93373;-86
2023/01/09 08:28:00;;;;;;;4.60;3.42;;;7.60;99.90;;;;;;4998427;28;94880;-86
2023/01/09 08:30:27;;;;;;;8.32;3.47;;;7.50;99.90;;;;;;4982765;28;92586;-86
2023/01/09 08:32:54;;;;;;;5.93;3.40;;;7.50;99.90;;;;;;4982520;28;95929;-86
2023/01/09 08:35:21;;;;;;;7.30;3.45;;;7.50;99.90;;;;;;4982584;28;95705;-86
2023/01/09 08:37:48;;;;;;;10.55;3.13;;;7.60;99.90;;;;;;4999510;28;92485;-86
2023/01/09 08:40:16;;;;;;;5.55;3.10;;;7.60;99.90;;;;;;4999360;28;92738;-86
2023/01/09 08:48:16;;;;;;;6.65;3.00;;;7.70;99.90;;;;;;5002860;28;92501;-86
2023/01/09 08:50:43;;;;;;;4.40;2.63;;;7.80;99.90;;;;;;4999713;28;92461;-86
2023/01/09 08:53:11;;;;;;;6.78;3.05;;;7.80;99.90;;;;;;4980283;28;98182;-86
2023/01/09 08:55:38;;;;;;;6.55;2.88;;;7.80;99.90;;;;;;4998353;28;97966;-86
2023/01/09 08:58:05;;;;;;;7.53;3.13;;;7.90;99.90;;;;;;4998565;28;92517;-86
2023/01/09 09:00:32;;;;;;;6.18;2.72;;;8.00;99.90;;;;;;4998898;28;92499;-86
2023/01/09 09:03:00;;;;;;;8.32;3.03;;;8.00;99.90;;;;;;4982033;28;95893;-86
2023/01/09 09:05:29;;;;;;;6.47;3.22;;;8.10;99.90;;;;;;5016423;28;94429;-86
2023/01/09 09:07:56;;;;;;;4.70;2.65;;;8.10;99.90;;;;;;4998528;28;92792;-86
2023/01/09 09:10:27;;;;;;;6.47;2.67;;;8.10;99.90;;;;;;4982797;28;94336;-87
2023/01/09 09:12:56;;;;;;;8.50;3.22;;;8.20;99.90;;;;;;5016181;28;92530;-87
2023/01/09 09:15:25;;;;;;;7.65;2.67;;;8.20;99.90;;;;;;5016571;28;92947;-86
2023/01/09 09:17:57;;;;;;;7.03;2.85;;;8.30;99.90;;;;;;4997439;28;94899;-87
2023/01/09 09:20:27;;;;;;;3.83;2.85;;;8.30;99.90;;;;;;4998675;28;93020;-87
2023/01/09 09:22:55;;;;;;;6.72;3.00;;;8.40;99.90;;;;;;4997539;28;95839;-85
2023/01/09 09:25:22;;;;;;;6.88;3.08;;;8.40;99.90;;;;;;4981916;28;95899;-87
2023/01/09 09:27:49;;;;;;;6.72;2.78;;;8.40;99.90;;;;;;4998701;28;92334;-87
2023/01/09 09:30:18;;;;;;;7.93;2.85;;;8.50;99.90;;;;;;4981752;28;92485;-86
2023/01/09 09:32:46;;;;;;;5.80;2.70;;;8.50;99.90;;;;;;4995001;28;102578;-86
2023/01/09 09:35:13;;;;;;;5.45;2.70;;;8.50;99.90;;;;;;4994961;28;101686;-86
2023/01/09 09:37:40;;;;;;;3.92;2.75;;;8.60;99.90;;;;;;5013699;28;98810;-87
2023/01/09 09:40:19;;;;;;;4.47;2.53;;;8.60;99.90;;;;;;4995014;28;98645;-86
2023/01/09 09:46:39;;;;;;;8.07;3.30;;;8.70;99.90;;;;;;5012718;28;99842;-86
2023/01/09 09:49:18;;;;;;;7.20;3.25;;;8.70;99.90;;;;;;4972669;28;98641;-86
2023/01/09 09:52:09;;;;;;;9.05;3.15;;;8.70;99.90;;;;;;4979329;28;98997;-86
2023/01/09 09:54:43;;;;;;;6.25;2.72;;;8.80;99.90;;;;;;4995196;28;99501;-87
2023/01/09 09:57:16;;;;;;;7.13;3.28;;;8.80;99.90;;;;;;4994838;28;99065;-86
2023/01/09 09:59:47;;;;;;;6.15;3.55;;;8.90;99.90;;;;;;4995100;28;98684;-86
2023/01/09 10:02:25;;;;;;;4.68;3.05;;;8.90;99.90;;;;;;4995126;28;97783;-87
2023/01/09 10:05:06;;;;;;;5.57;3.08;;;9.00;99.90;;;;;;5012716;28;99316;-86
2023/01/09 10:07:41;;;;;;;4.00;2.90;;;9.10;99.90;;;;;;5013127;28;99031;-86
2023/01/09 10:10:32;;;;;;;8.27;3.47;;;9.10;99.90;;;;;;4994555;28;99477;-86
2023/01/09 10:14:03;;;;;;;7.07;2.85;;;9.30;99.90;;;;;;5012711;28;98541;-86
2023/01/09 10:16:13;;;;;;;6.25;3.05;;;9.30;99.90;;;;;;4993684;28;102421;-86
2023/01/09 10:19:04;;;;;;;5.88;3.10;;;9.30;99.90;;;;;;5012232;28;99338;-86
2023/01/09 10:21:46;;;;;;;6.22;3.00;;;9.40;99.90;;;;;;4978061;28;99132;-86
2023/01/09 10:24:32;;;;;;;4.07;2.88;;;9.40;99.90;;;;;;4977654;28;98582;-86
2023/01/09 10:27:08;;;;;;;6.25;3.38;;;9.50;99.90;;;;;;4994447;28;99431;-87
2023/01/09 10:29:54;;;;;;;7.97;4.10;;;9.50;99.90;;;;;;4994974;28;99202;-86
2023/01/09 10:32:24;;;;;;;5.57;2.88;;;9.60;99.90;;;;;;5012514;28;98502;-86
2023/01/09 10:35:02;;;;;;;4.88;3.10;;;9.60;99.90;;;;;;4977733;28;98583;-86
2023/01/09 10:37:37;;;;;;;8.20;3.55;;;9.70;99.90;;;;;;4977186;28;102940;-87
2023/01/09 10:40:16;;;;;;;6.10;3.40;;;9.80;99.90;;;;;;4977353;28;102108;-86
2023/01/09 10:42:53;;;;;;;6.38;3.30;;;9.80;99.90;;;;;;4994823;28;98589;-87
2023/01/09 10:45:35;;;;;;;9.23;3.83;;;9.80;99.90;;;;;;5012320;28;98938;-86
2023/01/09 10:48:13;;;;;;;6.15;2.70;;;9.90;99.90;;;;;;5011269;28;100778;-86
2023/01/09 10:50:44;;;;;;;5.63;2.50;;;9.90;99.90;;;;;;4962498;28;101540;-87
2023/01/09 10:53:26;;;;;;;6.22;2.75;;;9.90;99.90;;;;;;4994314;28;98551;-87
2023/01/09 10:56:24;;;;;;;5.18;2.65;;;9.90;99.90;;;;;;4979025;28;98230;-87
2023/01/09 10:58:53;;;;;;;3.63;2.75;;;9.90;99.90;;;;;;5005945;28;99761;-87
2023/01/09 11:01:29;;;;;;;4.28;2.55;;;9.80;99.90;;;;;;4993584;28;101671;-87
2023/01/09 11:03:58;;;;;;;4.88;2.53;;;9.90;99.90;;;;;;4994424;28;99317;-87
2023/01/09 11:06:35;;;;;;;14.90;5.20;;;9.90;99.90;;;;;;4977394;28;98530;-87
2023/01/09 11:09:03;;;;;;;4.05;2.13;;;10.00;99.90;;;;;;5011648;28;99342;-87
2023/01/09 11:11:34;;;;;;;5.55;2.60;;;10.00;99.90;;;;;;4976863;28;102063;-87
2023/01/09 11:14:13;;;;;;;5.50;2.60;;;10.10;99.90;;;;;;5011985;28;98550;-87
2023/01/09 11:17:16;;;;;;;4.50;2.40;;;10.10;99.90;;;;;;4995912;28;98614;-86
2023/01/09 11:20:14;;;;;;;5.35;2.92;;;10.10;99.90;;;;;;4970825;28;102198;-87
2023/01/09 11:22:47;;;;;;;5.15;2.03;;;10.10;99.90;;;;;;4997014;28;103038;-86
2023/01/09 11:25:19;;;;;;;7.40;2.50;;;10.00;99.90;;;;;;4997563;28;98562;-87
2023/01/09 11:28:01;;;;;;;3.65;2.20;;;10.00;99.90;;;;;;5015195;28;99063;-86
2023/01/09 11:30:32;;;;;;;3.80;2.22;;;10.10;99.90;;;;;;5014069;28;100076;-87
2023/01/09 11:32:59;;;;;;;5.53;2.45;;;10.00;99.90;;;;;;4997445;28;99793;-87
2023/01/09 11:35:32;;;;;;;4.18;2.33;;;10.00;99.90;;;;;;4980335;28;98899;-87
2023/01/09 11:38:11;;;;;;;6.07;3.10;;;10.00;99.90;;;;;;5015289;28;98555;-87
2023/01/09 11:40:59;;;;;;;5.05;2.65;;;10.00;99.90;;;;;;5014857;28;99420;-87
2023/01/09 11:43:34;;;;;;;4.78;2.72;;;10.10;99.90;;;;;;4996509;28;101654;-86
2023/01/09 11:46:05;;;;;;;5.15;2.88;;;10.00;99.90;;;;;;4996898;28;98504;-86
2023/01/09 11:48:55;;;;;;;4.90;2.72;;;10.00;99.90;;;;;;4996692;28;97870;-86
2023/01/09 11:51:32;;;;;;;6.75;3.10;;;10.10;99.90;;;;;;5014005;28;100655;-86
2023/01/09 11:54:19;;;;;;;4.18;3.17;;;10.00;99.90;;;;;;4996504;28;101314;-87
2023/01/09 11:56:47;;;;;;;4.22;2.90;;;10.10;99.90;;;;;;5014654;28;99347;-86
2023/01/09 11:59:17;;;;;;;3.88;3.10;;;10.00;99.90;;;;;;4996345;28;98652;-88
2023/01/09 12:01:50;;;;;;;5.30;3.67;;;10.10;99.90;;;;;;5012709;28;101948;-86
2023/01/09 12:04:31;;;;;;;4.80;3.27;;;10.10;99.90;;;;;;5013837;28;100290;-86
2023/01/09 12:07:24;;;;;;;5.40;3.10;;;10.20;99.90;;;;;;4997205;28;98512;-86
2023/01/09 12:09:57;;;;;;;5.95;4.07;;;10.20;99.90;;;;;;5014919;28;98679;-86
2023/01/09 12:12:32;;;;;;;5.15;3.33;;;10.20;99.90;;;;;;4979011;28;103258;-87
2023/01/09 12:15:21;;;;;;;7.70;3.72;;;10.20;99.90;;;;;;4996814;28;101667;-87
2023/01/09 12:18:03;;;;;;;4.95;4.15;;;10.20;99.90;;;;;;5014091;28;98422;-87
2023/01/09 12:20:44;;;;;;;4.38;3.97;;;10.10;99.90;;;;;;5013949;28;98532;-87
2023/01/09 12:24:00;;;;;;;4.78;4.15;;;10.10;99.90;;;;;;5013025;28;99945;-86
2023/01/09 12:26:31;;;;;;;5.70;3.80;;;10.10;99.90;;;;;;4975402;28;99742;-87
2023/01/09 12:29:08;;;;;;;4.82;3.97;;;10.10;99.90;;;;;;5014565;28;98983;-87
2023/01/09 12:31:57;;;;;;;5.72;4.35;;;10.10;99.90;;;;;;4995944;28;99104;-87
2023/01/09 12:34:52;;;;;;;4.97;4.28;;;10.10;99.90;;;;;;4995211;28;101885;-87
2023/01/09 12:37:48;;;;;;;6.25;4.47;;;10.10;99.90;;;;;;4978895;28;101560;-87
2023/01/09 12:40:15;;;;;;;5.93;3.95;;;10.10;99.90;;;;;;5012888;28;98524;-87
2023/01/09 12:42:49;;;;;;;6.43;4.60;;;10.10;99.90;;;;;;4996445;28;97819;-86
2023/01/09 12:45:50;;;;;;;4.68;4.30;;;10.20;99.90;;;;;;4996281;28;99761;-86
2023/01/09 12:48:56;;;;;;;6.07;4.53;;;10.20;99.90;;;;;;4996065;28;101688;-86
2023/01/09 12:51:42;;;;;;;6.75;4.55;;;10.30;99.90;;;;;;4979709;28;99268;-86
2023/01/09 12:54:29;;;;;;;5.47;4.25;;;10.30;99.90;;;;;;4996653;28;98545;-87
2023/01/09 12:57:01;;;;;;;5.78;4.95;;;10.30;99.90;;;;;;5013238;28;100403;-86
2023/01/09 12:59:30;;;;;;;6.65;5.43;;;10.40;99.90;;;;;;4995390;28;99041;-86
2023/01/09 13:02:27;;;;;;;7.57;4.57;;;10.40;99.90;;;;;;5013734;28;98498;-87
2023/01/09 13:05:08;;;;;;;6.28;4.50;;;10.50;99.90;;;;;;5004758;28;98574;-86
2023/01/09 13:08:09;;;;;;;5.70;5.20;;;10.40;99.90;;;;;;4995654;28;99282;-87
2023/01/09 13:10:44;;;;;;;8.38;5.43;;;10.40;99.90;;;;;;4978357;28;101504;-87
2023/01/09 13:13:25;;;;;;;6.43;4.95;;;10.40;99.90;;;;;;5013736;28;98594;-87
2023/01/09 13:15:55;;;;;;;8.73;5.85;;;10.40;99.90;;;;;;4996899;28;98707;-87
2023/01/09 13:18:39;;;;;;;8.30;6.05;;;10.30;99.90;;;;;;5012688;28;100100;-87
2023/01/09 13:21:07;;;;;;;6.25;5.60;;;10.30;99.90;;;;;;4994907;28;102300;-87
2023/01/09 13:23:34;;;;;;;9.38;6.22;;;10.20;99.90;;;;;;4994796;28;98623;-87
2023/01/09 13:26:09;;;;;;;9.20;5.65;;;10.20;99.90;;;;;;5013589;28;98903;-87
2023/01/09 13:28:42;;;;;;;8.20;6.53;;;10.20;99.90;;;;;;5012780;28;100991;-87